Time;durP1;ratioP1;P1;durP2;ratioP2;P2;SDS_P1;SDS_P2;PMS_P1;PMS_P2;Temp;Humidity;BMP_temperature;BMP_pressure;BME280_temperature;BME280_humidity;BME280_pressure;Samples;Min_cycle;Max_cycle;Signal;HPM_P1;HPM_P2
2022/10/07 00:01:07;;;;;;;20.65;3.72;;;15.30;99.90;;;;;;4990952;28;20035;-65
2022/10/07 00:03:33;;;;;;;12.57;2.95;;;15.30;99.90;;;;;;4989555;28;20393;-65
2022/10/07 00:06:11;;;;;;;11.23;2.85;;;15.30;99.90;;;;;;4990975;28;20046;-66
2022/10/07 00:08:38;;;;;;;15.68;3.17;;;15.20;99.90;;;;;;4989503;28;20054;-65
2022/10/07 00:11:06;;;;;;;10.57;2.45;;;15.20;99.90;;;;;;4990878;28;20042;-65
2022/10/07 00:13:32;;;;;;;16.67;3.45;;;15.20;99.90;;;;;;4990634;28;20061;-65
2022/10/07 00:16:16;;;;;;;17.65;3.03;;;15.20;99.90;;;;;;4991404;28;20440;-65
2022/10/07 00:18:42;;;;;;;16.02;2.65;;;15.30;99.90;;;;;;4973558;28;20049;-65
2022/10/07 00:21:13;;;;;;;22.15;3.42;;;15.10;99.90;;;;;;4990169;28;20035;-66
2022/10/07 00:23:41;;;;;;;26.80;3.60;;;15.20;99.90;;;;;;4988421;28;20462;-65
2022/10/07 00:26:08;;;;;;;18.75;3.13;;;15.70;99.90;;;;;;4988268;28;20046;-65
2022/10/07 00:28:35;;;;;;;21.17;3.20;;;15.30;99.90;;;;;;4990406;28;20076;-65
2022/10/07 00:31:03;;;;;;;18.95;3.38;;;15.30;99.90;;;;;;4991582;28;20082;-65
2022/10/07 00:33:30;;;;;;;24.02;3.78;;;15.30;99.90;;;;;;4991135;28;20121;-65
2022/10/07 00:35:55;;;;;;;23.63;4.20;;;15.20;99.90;;;;;;4982648;28;20050;-65
2022/10/07 00:38:21;;;;;;;21.35;4.03;;;15.20;99.90;;;;;;4989797;28;20484;-65
2022/10/07 00:40:47;;;;;;;12.20;3.10;;;15.20;99.90;;;;;;4988656;28;20439;-65
2022/10/07 00:43:25;;;;;;;17.05;3.30;;;15.30;99.90;;;;;;4990075;28;20030;-65
2022/10/07 00:45:52;;;;;;;18.50;3.67;;;15.40;99.90;;;;;;4989386;28;20410;-65
2022/10/07 00:48:22;;;;;;;24.25;3.38;;;15.40;99.90;;;;;;4989485;28;20561;-65
2022/10/07 00:50:51;;;;;;;19.50;3.25;;;15.40;99.90;;;;;;4990822;28;20463;-65
2022/10/07 00:53:17;;;;;;;18.15;3.10;;;15.50;99.90;;;;;;4989438;28;20058;-65
2022/10/07 00:55:43;;;;;;;17.50;3.05;;;17.30;99.90;;;;;;4989329;28;20023;-65
2022/10/07 00:58:09;;;;;;;14.05;3.03;;;15.40;99.90;;;;;;4994975;28;20467;-65
2022/10/07 01:00:36;;;;;;;22.92;3.35;;;15.20;99.90;;;;;;4993398;28;20035;-65
2022/10/07 01:03:02;;;;;;;21.67;3.38;;;15.40;99.90;;;;;;4976337;28;20034;-65
2022/10/07 01:05:28;;;;;;;21.65;3.55;;;15.40;99.90;;;;;;4991976;28;20385;-65
2022/10/07 01:07:54;;;;;;;15.65;3.00;;;15.20;99.90;;;;;;4995422;28;20061;-65
2022/10/07 01:10:21;;;;;;;13.55;3.13;;;15.40;99.90;;;;;;4994993;28;20049;-65
2022/10/07 01:13:15;;;;;;;17.33;3.45;;;15.40;99.90;;;;;;4976889;28;20156;-65
2022/10/07 01:16:01;;;;;;;30.17;3.88;;;15.40;99.90;;;;;;4993763;28;20039;-65
2022/10/07 01:18:52;;;;;;;15.15;2.97;;;15.50;99.90;;;;;;4991996;28;20039;-65
2022/10/07 01:21:36;;;;;;;17.80;3.28;;;15.40;99.90;;;;;;4992870;28;20057;-65
2022/10/07 01:24:23;;;;;;;11.05;2.72;;;15.20;99.90;;;;;;4993664;28;20041;-65
2022/10/07 01:27:04;;;;;;;17.55;3.10;;;15.30;99.90;;;;;;4975725;28;20077;-65
2022/10/07 01:29:42;;;;;;;27.23;4.32;;;15.20;99.90;;;;;;4994628;28;20165;-65
2022/10/07 01:32:13;;;;;;;18.48;3.67;;;15.90;99.90;;;;;;4993692;28;20455;-65
2022/10/07 01:34:41;;;;;;;17.88;2.85;;;15.40;99.90;;;;;;4986065;28;20530;-65
2022/10/07 01:37:11;;;;;;;24.30;3.70;;;15.40;99.90;;;;;;4993117;28;20053;-65
2022/10/07 01:39:44;;;;;;;18.75;3.33;;;15.40;99.90;;;;;;4994763;28;20043;-65
2022/10/07 01:42:10;;;;;;;17.10;3.20;;;15.30;99.90;;;;;;4990992;28;20039;-65
2022/10/07 01:44:37;;;;;;;21.20;3.97;;;15.40;99.90;;;;;;4976700;28;20101;-65
2022/10/07 01:47:03;;;;;;;22.20;4.15;;;15.40;99.90;;;;;;4993135;28;20109;-65
2022/10/07 01:49:29;;;;;;;15.93;3.28;;;15.30;99.90;;;;;;4975784;28;20137;-65
2022/10/07 01:52:23;;;;;;;13.98;3.13;;;15.30;99.90;;;;;;4991069;28;20514;-65
2022/10/07 01:54:54;;;;;;;18.40;2.88;;;15.40;99.90;;;;;;4974651;28;20172;-65
2022/10/07 01:57:50;;;;;;;15.98;3.08;;;15.30;99.90;;;;;;4991953;28;20185;-65
2022/10/07 02:00:17;;;;;;;16.42;3.25;;;15.60;99.90;;;;;;4991731;28;20046;-65
2022/10/07 02:03:17;;;;;;;17.52;2.85;;;15.30;99.90;;;;;;4992801;28;20039;-65
2022/10/07 02:05:48;;;;;;;14.63;3.38;;;15.50;99.90;;;;;;4993336;28;20054;-65
2022/10/07 02:08:39;;;;;;;28.02;3.92;;;15.60;99.90;;;;;;4992273;28;20085;-65
2022/10/07 02:11:19;;;;;;;17.50;2.88;;;15.60;99.90;;;;;;4985588;28;20482;-65
2022/10/07 02:13:47;;;;;;;20.88;3.92;;;15.60;99.90;;;;;;4992276;28;20475;-65
2022/10/07 02:16:22;;;;;;;19.70;3.65;;;15.40;99.90;;;;;;4993278;28;20038;-65
2022/10/07 02:18:50;;;;;;;21.88;3.67;;;15.60;99.90;;;;;;4992240;28;20034;-65
2022/10/07 02:21:22;;;;;;;24.38;3.40;;;15.60;99.90;;;;;;4992723;28;20134;-65
2022/10/07 02:23:49;;;;;;;17.63;3.22;;;15.40;99.90;;;;;;4991501;28;20039;-65
2022/10/07 02:26:19;;;;;;;26.60;3.17;;;15.70;99.90;;;;;;4991748;28;20492;-65
2022/10/07 02:28:49;;;;;;;20.58;3.30;;;15.60;99.90;;;;;;4990404;28;20466;-65
2022/10/07 02:31:17;;;;;;;19.95;3.35;;;15.50;99.90;;;;;;4992993;28;20049;-66
2022/10/07 02:33:45;;;;;;;23.00;3.90;;;15.50;99.90;;;;;;4990942;28;20049;-65
2022/10/07 02:36:16;;;;;;;21.67;4.13;;;15.40;99.90;;;;;;4974372;28;20137;-65
2022/10/07 02:38:43;;;;;;;22.58;3.95;;;15.70;99.90;;;;;;4992545;28;20053;-65
2022/10/07 02:41:12;;;;;;;20.60;4.22;;;15.70;99.90;;;;;;4992263;28;20046;-65
2022/10/07 02:43:51;;;;;;;14.40;2.53;;;15.40;99.90;;;;;;4989726;28;20126;-65
2022/10/07 02:46:29;;;;;;;21.55;3.67;;;15.30;99.90;;;;;;4986533;28;20038;-65
2022/10/07 02:48:59;;;;;;;18.83;3.28;;;15.30;99.90;;;;;;4991551;28;20073;-66
2022/10/07 02:51:32;;;;;;;18.15;3.33;;;15.60;99.90;;;;;;4992355;28;20066;-65
2022/10/07 02:54:02;;;;;;;19.98;3.20;;;15.40;99.90;;;;;;4987821;28;20381;-65
2022/10/07 02:56:29;;;;;;;20.10;3.47;;;15.40;99.90;;;;;;4993103;28;20420;-65
2022/10/07 02:58:56;;;;;;;13.77;3.03;;;15.70;99.90;;;;;;4992369;28;20100;-65
2022/10/07 03:01:27;;;;;;;22.00;4.05;;;15.70;99.90;;;;;;4990449;28;20045;-65
2022/10/07 03:03:55;;;;;;;19.70;3.63;;;15.40;99.90;;;;;;4973535;28;20046;-65
2022/10/07 03:06:22;;;;;;;27.08;3.95;;;15.80;99.90;;;;;;4973202;28;20074;-65
2022/10/07 03:08:48;;;;;;;13.95;3.17;;;15.70;99.90;;;;;;4968596;28;20489;-65
2022/10/07 03:11:14;;;;;;;18.00;3.30;;;15.70;99.90;;;;;;4973193;28;20081;-65
2022/10/07 03:13:39;;;;;;;26.02;4.97;;;15.40;99.90;;;;;;4970240;28;20050;-66
2022/10/07 03:16:05;;;;;;;22.63;3.55;;;15.50;99.90;;;;;;4972877;28;20034;-66
2022/10/07 03:18:31;;;;;;;11.30;2.50;;;15.40;99.90;;;;;;4970773;28;20049;-65
2022/10/07 03:21:01;;;;;;;19.63;3.38;;;15.40;99.90;;;;;;4973097;28;20061;-65
2022/10/07 03:23:28;;;;;;;20.30;3.45;;;15.90;99.90;;;;;;4970734;28;20061;-65
2022/10/07 03:25:55;;;;;;;17.35;3.05;;;15.40;99.90;;;;;;4971808;28;20109;-65
2022/10/07 03:28:22;;;;;;;22.42;3.97;;;15.70;99.90;;;;;;4969054;28;20046;-65
2022/10/07 03:30:49;;;;;;;19.88;3.70;;;15.40;99.90;;;;;;4971898;28;20047;-65
2022/10/07 03:33:16;;;;;;;21.27;3.47;;;16.00;99.90;;;;;;4970648;28;20530;-65
2022/10/07 03:35:42;;;;;;;28.45;4.18;;;15.50;99.90;;;;;;4971605;28;20488;-66
2022/10/07 03:38:09;;;;;;;19.33;3.97;;;15.90;99.90;;;;;;4972550;28;20041;-65
2022/10/07 03:40:35;;;;;;;20.05;3.67;;;15.90;99.90;;;;;;4967465;28;20129;-65
2022/10/07 03:43:01;;;;;;;26.63;4.10;;;15.50;99.90;;;;;;4971968;28;20468;-65
2022/10/07 03:45:29;;;;;;;28.35;3.85;;;15.30;99.90;;;;;;4970517;28;20121;-65
2022/10/07 03:47:58;;;;;;;23.80;4.60;;;15.80;99.90;;;;;;4970124;28;20070;-65
2022/10/07 03:50:25;;;;;;;21.88;3.53;;;15.30;99.90;;;;;;4972002;28;20037;-65
2022/10/07 03:52:51;;;;;;;18.98;3.63;;;15.80;99.90;;;;;;4972087;28;20131;-66
2022/10/07 03:55:16;;;;;;;18.77;4.25;;;15.60;99.90;;;;;;4968771;28;20452;-66
2022/10/07 03:57:54;;;;;;;27.85;3.42;;;15.80;99.90;;;;;;4970326;28;20045;-65
2022/10/07 04:00:22;;;;;;;19.67;3.70;;;15.90;99.90;;;;;;4957088;28;20086;-65
2022/10/07 04:02:48;;;;;;;28.92;4.38;;;15.80;99.90;;;;;;4970466;28;20035;-65
2022/10/07 04:05:19;;;;;;;19.65;4.43;;;15.60;99.90;;;;;;4981371;28;20054;-65
2022/10/07 04:07:47;;;;;;;23.85;4.15;;;15.90;99.90;;;;;;4986886;28;20053;-65
2022/10/07 04:10:15;;;;;;;24.65;3.63;;;16.00;99.90;;;;;;4991479;28;20114;-66
2022/10/07 04:12:42;;;;;;;28.52;4.57;;;15.90;99.90;;;;;;4971890;28;20058;-65
2022/10/07 04:15:08;;;;;;;18.75;4.30;;;15.40;99.90;;;;;;4990688;28;20085;-65
2022/10/07 04:17:34;;;;;;;19.33;3.95;;;15.40;99.90;;;;;;4990676;28;20133;-65
2022/10/07 04:19:59;;;;;;;19.88;3.67;;;15.40;99.90;;;;;;4989293;28;20145;-66
2022/10/07 04:22:25;;;;;;;21.23;3.83;;;15.90;99.90;;;;;;4992043;28;20085;-65
2022/10/07 04:27:36;;;;;;;28.38;3.88;;;15.40;99.90;;;;;;4987509;28;20081;-65
2022/10/07 04:30:02;;;;;;;21.98;4.00;;;15.90;99.90;;;;;;4990332;28;20109;-65
2022/10/07 04:32:29;;;;;;;18.38;3.28;;;15.50;99.90;;;;;;4994903;28;20488;-66
2022/10/07 04:34:55;;;;;;;19.67;3.35;;;15.30;99.90;;;;;;4991478;28;20062;-65
2022/10/07 04:37:20;;;;;;;22.15;4.28;;;15.40;99.90;;;;;;4994312;28;20109;-65
2022/10/07 04:39:46;;;;;;;19.40;3.72;;;15.60;99.90;;;;;;4993370;28;20053;-65
2022/10/07 04:43:17;;;;;;;21.33;3.90;;;15.90;99.90;;;;;;4994446;28;20506;-65
2022/10/07 04:44:57;;;;;;;11.55;2.70;;;15.70;99.90;;;;;;4984338;28;20046;-65
2022/10/07 04:47:22;;;;;;;30.48;3.53;;;16.00;99.90;;;;;;4994133;28;20038;-65
2022/10/07 04:49:48;;;;;;;21.02;4.30;;;15.50;99.90;;;;;;4991796;28;20042;-65
2022/10/07 04:52:13;;;;;;;30.00;4.65;;;15.60;99.90;;;;;;4994562;28;20034;-65
2022/10/07 04:54:39;;;;;;;13.95;4.15;;;15.50;99.90;;;;;;4994151;28;20039;-65
2022/10/07 04:57:05;;;;;;;17.85;3.63;;;15.50;99.90;;;;;;4993556;28;20038;-65
2022/10/07 04:59:31;;;;;;;18.80;3.53;;;15.60;99.90;;;;;;4991086;28;20097;-65
2022/10/07 05:01:57;;;;;;;16.80;3.55;;;16.00;99.90;;;;;;4993815;28;20419;-65
2022/10/07 05:04:22;;;;;;;21.27;3.67;;;15.40;99.90;;;;;;4992836;28;20059;-65
2022/10/07 05:06:48;;;;;;;18.13;3.75;;;15.60;99.90;;;;;;4993418;28;20410;-65
2022/10/07 05:09:14;;;;;;;23.77;3.42;;;15.80;99.90;;;;;;4992985;28;20129;-65
2022/10/07 05:11:39;;;;;;;25.95;4.03;;;16.10;99.90;;;;;;4975931;28;20046;-65
2022/10/07 05:14:05;;;;;;;26.92;3.70;;;15.40;99.90;;;;;;4991801;28;20030;-66
2022/10/07 05:16:30;;;;;;;16.23;3.42;;;15.60;99.90;;;;;;4993184;28;20084;-65
2022/10/07 05:18:56;;;;;;;24.70;3.63;;;16.10;99.90;;;;;;4992867;28;20041;-66
2022/10/07 05:21:22;;;;;;;29.35;5.28;;;16.10;99.90;;;;;;4976523;28;20092;-65
2022/10/07 05:23:47;;;;;;;13.35;3.10;;;15.60;99.90;;;;;;4994400;28;20030;-65
2022/10/07 05:26:14;;;;;;;11.50;3.22;;;15.50;99.90;;;;;;4993770;28;20093;-65
2022/10/07 05:28:40;;;;;;;13.68;3.85;;;15.90;99.90;;;;;;4993480;28;20034;-65
2022/10/07 05:31:13;;;;;;;21.40;4.07;;;15.50;99.90;;;;;;4993479;28;20508;-65
2022/10/07 05:33:39;;;;;;;24.17;3.67;;;16.00;99.90;;;;;;4989454;28;20046;-65
2022/10/07 05:36:06;;;;;;;20.33;3.80;;;15.80;99.90;;;;;;4988745;28;20026;-65
2022/10/07 05:38:33;;;;;;;18.50;3.67;;;15.50;99.90;;;;;;4993138;28;20034;-65
2022/10/07 05:41:01;;;;;;;28.65;4.70;;;15.60;99.90;;;;;;4994109;28;20126;-65
2022/10/07 05:43:28;;;;;;;20.60;3.55;;;15.50;99.90;;;;;;4992712;28;20410;-65
2022/10/07 05:46:09;;;;;;;20.75;3.80;;;15.60;99.90;;;;;;4991125;28;20042;-63
2022/10/07 05:48:35;;;;;;;11.73;3.10;;;15.60;99.90;;;;;;4989379;28;20109;-63
2022/10/07 05:51:01;;;;;;;20.95;3.67;;;15.50;99.90;;;;;;4978942;28;20085;-63
2022/10/07 05:53:28;;;;;;;23.02;4.25;;;15.60;99.90;;;;;;4980653;28;20119;-63
2022/10/07 05:55:54;;;;;;;25.38;4.28;;;15.50;99.90;;;;;;4982991;28;20034;-63
2022/10/07 05:58:20;;;;;;;15.90;2.97;;;15.90;99.90;;;;;;4983486;28;20479;-63
2022/10/07 06:00:55;;;;;;;25.80;4.53;;;16.20;99.90;;;;;;4982929;28;20041;-63
2022/10/07 06:03:21;;;;;;;17.33;3.65;;;15.80;99.90;;;;;;4987737;28;20538;-63
2022/10/07 06:05:49;;;;;;;19.85;3.92;;;16.20;99.90;;;;;;4992859;28;20050;-63
2022/10/07 06:08:17;;;;;;;23.23;4.53;;;16.40;99.90;;;;;;4990555;28;20042;-63
2022/10/07 06:13:27;;;;;;;23.88;3.85;;;16.10;99.90;;;;;;4992674;28;20096;-62
2022/10/07 06:15:52;;;;;;;25.73;4.72;;;15.80;99.90;;;;;;4992735;28;20435;-62
2022/10/07 06:18:18;;;;;;;21.17;4.20;;;15.80;99.90;;;;;;4992845;28;20125;-62
2022/10/07 06:20:56;;;;;;;15.80;4.50;;;16.50;99.90;;;;;;4991047;28;20656;-62
2022/10/07 06:23:21;;;;;;;31.58;3.53;;;15.80;99.90;;;;;;4987815;28;20035;-62
2022/10/07 06:25:58;;;;;;;22.05;4.20;;;16.40;99.90;;;;;;4987467;28;20499;-62
2022/10/07 06:28:25;;;;;;;24.73;3.40;;;16.40;99.90;;;;;;4988330;28;20044;-62
2022/10/07 06:30:50;;;;;;;23.42;4.65;;;16.00;99.90;;;;;;4990781;28;20476;-63
2022/10/07 06:33:18;;;;;;;18.55;3.67;;;16.00;99.90;;;;;;4990881;28;20097;-62
2022/10/07 06:35:44;;;;;;;26.10;4.13;;;16.00;99.90;;;;;;4989391;28;20416;-62
2022/10/07 06:38:11;;;;;;;25.75;4.22;;;16.10;99.90;;;;;;4990275;28;20097;-62
2022/10/07 06:40:37;;;;;;;14.70;3.08;;;16.90;99.90;;;;;;4969238;28;20480;-61
2022/10/07 06:43:03;;;;;;;21.92;2.90;;;16.20;99.90;;;;;;4988732;28;20092;-62
2022/10/07 06:45:31;;;;;;;19.27;3.65;;;16.20;99.90;;;;;;4986853;28;20038;-62
2022/10/07 06:47:56;;;;;;;12.35;2.67;;;16.90;99.90;;;;;;4986417;28;20518;-62
2022/10/07 06:50:22;;;;;;;18.42;3.58;;;16.40;99.90;;;;;;4991548;28;20044;-62
2022/10/07 06:52:48;;;;;;;20.50;3.60;;;16.70;99.90;;;;;;4971169;28;20053;-62
2022/10/07 06:55:13;;;;;;;25.83;4.40;;;17.00;99.90;;;;;;4988633;28;20042;-62
2022/10/07 06:57:40;;;;;;;21.58;3.65;;;16.30;99.90;;;;;;4990698;28;20042;-62
2022/10/07 07:00:06;;;;;;;23.13;3.83;;;16.80;99.90;;;;;;4972378;28;20963;-59
2022/10/07 07:02:32;;;;;;;19.25;3.70;;;16.50;99.90;;;;;;4990240;28;20031;-59
2022/10/07 07:04:57;;;;;;;13.90;3.13;;;17.10;99.90;;;;;;4988487;28;20060;-62
2022/10/07 07:07:23;;;;;;;17.42;3.72;;;16.80;99.90;;;;;;4989223;28;20401;-62
2022/10/07 07:09:52;;;;;;;19.92;3.58;;;17.30;99.90;;;;;;4989018;28;20113;-62
2022/10/07 07:12:17;;;;;;;14.10;3.10;;;16.70;99.90;;;;;;4988550;28;20038;-62
2022/10/07 07:14:44;;;;;;;25.17;4.20;;;17.00;99.90;;;;;;4983647;28;20049;-62
2022/10/07 07:17:10;;;;;;;15.77;3.67;;;16.80;99.90;;;;;;4987982;28;20046;-63
2022/10/07 07:19:36;;;;;;;25.30;3.80;;;16.80;99.90;;;;;;4990213;28;20062;-60
2022/10/07 07:22:02;;;;;;;12.73;2.80;;;16.90;99.90;;;;;;4989861;28;20504;-62
2022/10/07 07:24:27;;;;;;;15.55;2.83;;;17.30;99.90;;;;;;4991611;28;20042;-62
2022/10/07 07:26:53;;;;;;;22.20;5.07;;;17.00;99.90;;;;;;4991439;28;20038;-62
2022/10/07 07:29:19;;;;;;;20.52;3.58;;;17.10;99.90;;;;;;4991705;28;20462;-62
2022/10/07 07:31:45;;;;;;;25.50;3.60;;;17.70;99.90;;;;;;4991635;28;20042;-62
2022/10/07 07:34:12;;;;;;;11.43;2.70;;;17.60;99.90;;;;;;4975125;28;20057;-62
2022/10/07 07:36:41;;;;;;;13.68;2.65;;;17.70;99.90;;;;;;4992444;28;20049;-62
2022/10/07 07:39:09;;;;;;;14.70;3.45;;;17.70;99.90;;;;;;4992465;28;20100;-62
2022/10/07 07:41:39;;;;;;;19.00;3.63;;;17.90;99.90;;;;;;4992313;28;20035;-62
2022/10/07 07:44:07;;;;;;;19.23;4.07;;;17.50;99.90;;;;;;4991340;28;20034;-62
2022/10/07 07:46:40;;;;;;;17.77;3.38;;;17.50;99.90;;;;;;4974213;28;20038;-62
2022/10/07 07:49:09;;;;;;;15.60;3.80;;;17.60;99.90;;;;;;4992413;28;20042;-62
2022/10/07 07:51:34;;;;;;;19.05;3.90;;;17.70;99.90;;;;;;4989225;28;20512;-62
2022/10/07 07:54:00;;;;;;;20.25;3.70;;;18.10;99.90;;;;;;4983260;28;20081;-62
2022/10/07 07:56:27;;;;;;;15.98;4.57;;;18.00;99.90;;;;;;4991218;28;20038;-62
2022/10/07 07:58:54;;;;;;;12.27;2.67;;;18.30;99.90;;;;;;4990834;28;20047;-62
2022/10/07 08:01:19;;;;;;;16.52;4.20;;;18.20;99.90;;;;;;4991223;28;20101;-62
2022/10/07 08:03:46;;;;;;;17.08;4.07;;;18.30;99.90;;;;;;4991899;28;20046;-63
2022/10/07 08:06:14;;;;;;;15.43;3.80;;;18.20;99.90;;;;;;4992989;28;20522;-62
2022/10/07 08:08:42;;;;;;;20.25;3.67;;;18.50;99.90;;;;;;4976850;28;20080;-62
2022/10/07 08:11:19;;;;;;;15.55;3.28;;;18.40;99.90;;;;;;4991855;28;20042;-63
2022/10/07 08:13:46;;;;;;;15.25;3.55;;;18.30;99.90;;;;;;4995639;28;20455;-64
2022/10/07 08:16:14;;;;;;;23.77;4.72;;;18.60;99.90;;;;;;4977822;28;20078;-63
2022/10/07 08:18:40;;;;;;;19.33;3.85;;;18.50;99.90;;;;;;4995384;28;20038;-63
2022/10/07 08:21:07;;;;;;;13.90;3.22;;;18.60;99.90;;;;;;4993231;28;20539;-63
2022/10/07 08:23:34;;;;;;;14.88;3.47;;;18.40;99.90;;;;;;4991433;28;20432;-63
2022/10/07 08:26:00;;;;;;;12.93;3.25;;;18.30;99.90;;;;;;4988887;28;20042;-63
2022/10/07 08:28:27;;;;;;;14.93;3.00;;;18.30;99.90;;;;;;4974070;28;20459;-64
2022/10/07 08:30:53;;;;;;;12.63;3.28;;;18.80;99.90;;;;;;4990852;28;20038;-64
2022/10/07 08:33:20;;;;;;;21.50;3.88;;;19.00;99.90;;;;;;4994837;28;20444;-64
2022/10/07 08:35:50;;;;;;;14.73;2.85;;;19.10;99.90;;;;;;4991531;28;20054;-64
2022/10/07 08:38:16;;;;;;;13.45;3.65;;;19.40;99.90;;;;;;4986038;28;20504;-64
2022/10/07 08:40:49;;;;;;;14.23;3.90;;;19.50;99.90;;;;;;4994980;28;20045;-64
2022/10/07 08:43:18;;;;;;;12.90;3.08;;;19.60;99.90;;;;;;4994037;28;20046;-64
2022/10/07 08:45:45;;;;;;;13.45;3.00;;;19.60;99.90;;;;;;4991824;28;20046;-64
2022/10/07 08:48:23;;;;;;;18.83;3.63;;;19.60;99.90;;;;;;4994227;28;20038;-64
2022/10/07 08:50:55;;;;;;;11.20;2.97;;;19.70;99.90;;;;;;4990072;28;20508;-64
2022/10/07 08:53:33;;;;;;;8.52;3.35;;;19.70;99.90;;;;;;4993439;28;20046;-63
2022/10/07 08:56:14;;;;;;;16.30;3.33;;;19.80;99.90;;;;;;4993317;28;20042;-64
2022/10/07 08:58:59;;;;;;;20.45;3.80;;;19.80;99.90;;;;;;4993338;28;20050;-64
2022/10/07 09:01:58;;;;;;;11.45;3.38;;;19.60;99.90;;;;;;4992148;28;20082;-64
2022/10/07 09:04:42;;;;;;;16.08;4.00;;;19.50;99.90;;;;;;4994109;28;20044;-64
2022/10/07 09:07:17;;;;;;;21.15;3.40;;;19.30;99.90;;;;;;4994486;28;20057;-63
2022/10/07 09:09:56;;;;;;;11.98;3.45;;;19.40;99.90;;;;;;4992685;28;20037;-64
2022/10/07 09:12:39;;;;;;;8.60;2.75;;;19.40;99.90;;;;;;4974904;28;20057;-64
2022/10/07 09:15:13;;;;;;;10.13;3.00;;;19.50;99.90;;;;;;4991240;28;20672;-64
2022/10/07 09:17:48;;;;;;;17.20;3.75;;;19.50;99.90;;;;;;4993142;28;20077;-64
2022/10/07 09:20:27;;;;;;;12.98;3.78;;;19.60;99.90;;;;;;4993276;28;20043;-64
2022/10/07 09:22:56;;;;;;;17.67;3.60;;;19.60;99.90;;;;;;4969829;28;20030;-64
2022/10/07 09:25:27;;;;;;;15.40;3.00;;;19.70;99.90;;;;;;4993571;28;20104;-64
2022/10/07 09:27:53;;;;;;;12.82;3.65;;;19.70;99.90;;;;;;4993865;28;20050;-64
2022/10/07 09:30:23;;;;;;;16.70;4.03;;;19.80;99.90;;;;;;4992774;28;20042;-64
2022/10/07 09:32:55;;;;;;;16.20;3.63;;;19.80;99.90;;;;;;4960127;28;20046;-64
2022/10/07 09:35:26;;;;;;;9.52;2.95;;;20.00;99.90;;;;;;4976096;28;20066;-64
2022/10/07 09:38:07;;;;;;;15.57;3.70;;;19.90;99.90;;;;;;4990572;28;20048;-64
2022/10/07 09:43:27;;;;;;;20.40;4.32;;;20.10;99.90;;;;;;4978437;28;20082;-64
2022/10/07 09:45:54;;;;;;;17.75;2.75;;;20.10;99.90;;;;;;4992854;28;20054;-64
2022/10/07 09:48:24;;;;;;;9.05;2.78;;;20.30;99.90;;;;;;4974068;28;20088;-64
2022/10/07 09:50:50;;;;;;;12.63;3.13;;;20.10;99.90;;;;;;4992555;28;20053;-64
2022/10/07 09:53:19;;;;;;;19.63;3.65;;;20.20;99.90;;;;;;4990511;28;20046;-64
2022/10/07 09:55:45;;;;;;;19.10;3.47;;;20.20;99.90;;;;;;4974752;28;20484;-64
2022/10/07 09:58:19;;;;;;;13.73;3.72;;;20.30;99.90;;;;;;4993328;28;20057;-64
2022/10/07 10:00:47;;;;;;;18.60;3.60;;;20.30;99.90;;;;;;4975609;28;20068;-64
2022/10/07 10:03:13;;;;;;;14.85;2.95;;;20.40;99.90;;;;;;4993151;28;20109;-64
2022/10/07 10:05:50;;;;;;;16.98;3.85;;;20.30;99.90;;;;;;4992564;28;20829;-64
2022/10/07 10:08:16;;;;;;;19.95;3.65;;;20.50;99.90;;;;;;4992920;28;20196;-64
2022/10/07 10:10:58;;;;;;;13.00;2.85;;;20.50;99.90;;;;;;4987927;28;20146;-64
2022/10/07 10:13:39;;;;;;;14.05;3.63;;;20.60;99.90;;;;;;4993374;28;20135;-64
2022/10/07 10:16:28;;;;;;;21.17;3.35;;;20.80;99.90;;;;;;4991551;28;20041;-64
2022/10/07 10:18:57;;;;;;;14.85;3.40;;;20.60;99.90;;;;;;4991497;28;20050;-64
2022/10/07 10:21:57;;;;;;;9.30;3.00;;;20.60;99.90;;;;;;4993013;28;20041;-64
2022/10/07 10:27:18;;;;;;;9.15;3.03;;;20.70;99.90;;;;;;4986242;28;20560;-64
2022/10/07 10:30:07;;;;;;;14.38;3.08;;;20.60;99.90;;;;;;4992011;28;20053;-64
2022/10/07 10:32:56;;;;;;;11.95;3.10;;;20.70;99.90;;;;;;4990658;28;20488;-64
2022/10/07 10:35:27;;;;;;;11.18;3.35;;;20.60;99.90;;;;;;4990561;28;20050;-64
2022/10/07 10:38:19;;;;;;;12.80;3.28;;;20.50;99.90;;;;;;4992782;28;20057;-64
2022/10/07 10:40:57;;;;;;;22.23;3.80;;;20.40;99.90;;;;;;4990714;28;20121;-65
2022/10/07 10:43:56;;;;;;;12.90;2.85;;;20.60;99.90;;;;;;4990215;28;20039;-64
2022/10/07 10:46:29;;;;;;;15.75;3.97;;;20.50;99.90;;;;;;4991036;28;20042;-64
2022/10/07 10:49:24;;;;;;;7.85;2.97;;;20.50;99.90;;;;;;4990345;28;20249;-64
2022/10/07 10:52:14;;;;;;;11.57;2.65;;;20.70;99.90;;;;;;4958369;28;20089;-64
2022/10/07 10:54:48;;;;;;;15.30;2.90;;;20.70;99.90;;;;;;4970565;28;20046;-64
2022/10/07 10:57:45;;;;;;;18.25;3.28;;;20.70;99.90;;;;;;4986068;28;20038;-63
2022/10/07 11:00:12;;;;;;;14.27;3.22;;;20.70;99.90;;;;;;4991483;28;20045;-64
2022/10/07 11:02:37;;;;;;;15.20;2.78;;;20.50;99.90;;;;;;4991256;28;20120;-64
2022/10/07 11:05:12;;;;;;;12.02;2.83;;;20.50;99.90;;;;;;4991873;28;20054;-64
2022/10/07 11:07:43;;;;;;;23.45;3.40;;;20.50;99.90;;;;;;4974577;28;20054;-63
2022/10/07 11:10:24;;;;;;;14.80;4.13;;;20.60;99.90;;;;;;4990372;28;20081;-64
2022/10/07 11:12:55;;;;;;;15.45;3.33;;;20.70;99.90;;;;;;4991307;28;20136;-63
2022/10/07 11:15:33;;;;;;;18.90;3.55;;;20.70;99.90;;;;;;4972182;28;20034;-63
2022/10/07 11:18:04;;;;;;;12.65;3.25;;;20.50;99.90;;;;;;4972155;28;20090;-64
2022/10/07 11:20:35;;;;;;;24.80;4.15;;;20.40;99.90;;;;;;4990732;28;20076;-63
2022/10/07 11:23:21;;;;;;;28.98;3.88;;;20.30;99.90;;;;;;4991317;28;20042;-64
2022/10/07 11:25:56;;;;;;;22.75;3.75;;;20.40;99.90;;;;;;4989038;28;20046;-64
2022/10/07 11:28:32;;;;;;;9.90;2.50;;;20.40;99.90;;;;;;4991149;28;20050;-64
2022/10/07 11:31:16;;;;;;;;;;;20.50;99.90;;;;;;4991300;28;20174;-64
2022/10/07 11:34:23;;;;;;;11.18;3.03;;;20.60;99.90;;;;;;4990926;28;20022;-63
2022/10/07 11:37:15;;;;;;;10.85;3.05;;;20.40;99.90;;;;;;4990272;28;20049;-64
2022/10/07 11:39:40;;;;;;;15.40;3.47;;;20.60;99.90;;;;;;4991454;28;20121;-64
2022/10/07 11:42:21;;;;;;;8.65;2.85;;;20.70;99.90;;;;;;4990606;28;20129;-64
2022/10/07 11:44:52;;;;;;;20.85;3.25;;;20.50;99.90;;;;;;4991359;28;20515;-64
2022/10/07 11:47:23;;;;;;;10.80;3.08;;;20.60;99.90;;;;;;4991321;28;20073;-64
2022/10/07 11:49:56;;;;;;;7.28;2.88;;;20.60;99.90;;;;;;4989242;28;20049;-64
2022/10/07 11:52:28;;;;;;;21.23;3.72;;;20.60;99.90;;;;;;4990957;28;20124;-64
2022/10/07 11:55:07;;;;;;;14.27;2.95;;;20.60;99.90;;;;;;4991307;28;20568;-64
2022/10/07 11:57:37;;;;;;;15.07;2.92;;;20.80;99.90;;;;;;4983523;28;20042;-63
2022/10/07 12:00:20;;;;;;;7.00;2.42;;;20.70;99.90;;;;;;4990634;28;20381;-64
2022/10/07 12:02:47;;;;;;;12.18;2.85;;;20.60;99.90;;;;;;4972576;28;20053;-64
2022/10/07 12:05:34;;;;;;;9.35;2.75;;;20.60;99.90;;;;;;4988377;28;20072;-64
2022/10/07 12:08:22;;;;;;;14.45;2.97;;;20.60;99.90;;;;;;4989090;28;20507;-64
2022/10/07 12:10:54;;;;;;;12.13;3.00;;;20.60;99.90;;;;;;4983372;28;20499;-64
2022/10/07 12:13:20;;;;;;;14.50;3.53;;;20.40;99.90;;;;;;4991525;28;20073;-64
2022/10/07 12:15:47;;;;;;;10.32;1.95;;;20.40;99.90;;;;;;4990028;28;20085;-63
2022/10/07 12:18:16;;;;;;;7.88;2.60;;;20.50;99.90;;;;;;4990695;28;20041;-64
2022/10/07 12:20:44;;;;;;;11.52;2.85;;;20.60;99.90;;;;;;4990614;28;20050;-63
2022/10/07 12:23:22;;;;;;;16.77;3.10;;;20.50;99.90;;;;;;4991131;28;20062;-63
2022/10/07 12:25:58;;;;;;;20.35;2.85;;;20.40;99.90;;;;;;4979005;28;20159;-64
2022/10/07 12:28:40;;;;;;;9.23;2.13;;;20.40;99.90;;;;;;4968567;28;20042;-64
2022/10/07 12:31:43;;;;;;;12.07;2.50;;;20.40;99.90;;;;;;4991185;28;20054;-64
2022/10/07 12:34:10;;;;;;;12.70;2.95;;;20.60;99.90;;;;;;4989601;28;20381;-64
2022/10/07 12:36:40;;;;;;;5.00;1.90;;;20.30;99.90;;;;;;4990806;28;20518;-64
2022/10/07 12:39:25;;;;;;;11.85;1.92;;;20.30;99.90;;;;;;4989713;28;20053;-64
2022/10/07 12:41:52;;;;;;;12.70;2.57;;;20.30;99.90;;;;;;4987522;28;20114;-61
2022/10/07 12:44:30;;;;;;;9.07;2.65;;;20.60;99.90;;;;;;4985316;28;21364;-61
2022/10/07 12:47:16;;;;;;;11.00;2.38;;;20.60;99.90;;;;;;4985211;28;20039;-61
2022/10/07 12:49:49;;;;;;;8.13;2.33;;;20.50;99.90;;;;;;4967034;28;20578;-64
2022/10/07 12:52:54;;;;;;;12.95;2.45;;;20.40;99.90;;;;;;4967435;28;20049;-64
2022/10/07 12:55:35;;;;;;;9.07;2.33;;;20.40;99.90;;;;;;4988139;28;20055;-64
2022/10/07 13:01:37;;;;;;;7.55;2.22;;;20.40;99.90;;;;;;4963918;28;20038;-63
2022/10/07 13:04:50;;;;;;;17.92;3.08;;;20.40;99.90;;;;;;4992303;28;20484;-63
2022/10/07 13:07:54;;;;;;;11.05;2.70;;;20.30;99.90;;;;;;4976189;28;20483;-64
2022/10/07 13:10:40;;;;;;;17.42;2.97;;;20.10;99.90;;;;;;4991238;28;20042;-64
2022/10/07 13:13:06;;;;;;;;;;;20.10;99.90;;;;;;4989649;28;20166;-63
2022/10/07 13:15:42;;;;;;;7.33;2.03;;;20.10;99.90;;;;;;4990323;28;20539;-63